Time;durP1;ratioP1;P1;durP2;ratioP2;P2;SDS_P1;SDS_P2;PMS_P1;PMS_P2;Temp;Humidity;BMP_temperature;BMP_pressure;BME280_temperature;BME280_humidity;BME280_pressure;Samples;Min_cycle;Max_cycle;Signal;HPM_P1;HPM_P2
2021/10/24 00:02:09;;;;;;;;;34.25;30.25;;;;;11.75;57.90;102147.81;5059461;28;45440;-81
2021/10/24 00:04:34;;;;;;;;;34.50;30.50;;;;;11.72;57.78;102148.50;5059145;28;46070;-79
2021/10/24 00:07:00;;;;;;;;;32.50;30.00;;;;;11.70;58.03;102154.41;5040652;28;45457;-78
2021/10/24 00:09:26;;;;;;;;;34.00;31.00;;;;;11.67;57.78;102144.72;5059050;28;45432;-79
2021/10/24 00:11:51;;;;;;;;;35.75;31.50;;;;;11.61;57.83;102144.34;5040752;28;45330;-79
2021/10/24 00:14:17;;;;;;;;;37.00;32.00;;;;;11.60;58.27;102147.75;5058839;28;45258;-79
2021/10/24 00:16:43;;;;;;;;;33.25;32.00;;;;;11.55;58.13;102142.28;5057957;28;45546;-79
2021/10/24 00:19:09;;;;;;;;;32.50;31.75;;;;;11.50;58.29;102140.22;5061319;28;45178;-80
2021/10/24 00:21:34;;;;;;;;;29.50;26.50;;;;;11.43;58.62;102134.63;5061082;28;45229;-78
2021/10/24 00:24:00;;;;;;;;;31.25;30.50;;;;;11.45;58.61;102139.88;5058393;28;45741;-79
2021/10/24 00:26:26;;;;;;;;;31.25;29.75;;;;;11.38;58.67;102136.03;5058634;28;45486;-79
2021/10/24 00:28:51;;;;;;;;;31.25;30.25;;;;;11.39;58.57;102136.94;5058606;28;45943;-79
2021/10/24 00:31:17;;;;;;;;;32.75;29.00;;;;;11.36;58.67;102139.31;5058651;28;45386;-79
2021/10/24 00:33:43;;;;;;;;;33.25;29.25;;;;;11.32;58.63;102129.56;5057721;28;46415;-79
2021/10/24 00:36:08;;;;;;;;;32.75;31.50;;;;;11.33;58.60;102133.97;5058407;28;45465;-79
2021/10/24 00:38:34;;;;;;;;;38.25;30.50;;;;;11.28;58.96;102137.16;5058780;28;45390;-79
2021/10/24 00:40:59;;;;;;;;;34.00;31.00;;;;;11.24;58.96;102129.09;5058480;28;45536;-79
2021/10/24 00:43:25;;;;;;;;;33.75;31.25;;;;;11.21;59.25;102127.19;5040061;28;45613;-79
2021/10/24 00:45:51;;;;;;;;;33.25;30.50;;;;;11.28;59.12;102136.25;5057752;28;45462;-80
2021/10/24 00:48:16;;;;;;;;;33.75;29.00;;;;;11.27;59.06;102132.75;5058677;28;45420;-79
2021/10/24 00:50:42;;;;;;;;;35.75;31.25;;;;;11.27;58.81;102129.28;5058439;28;45680;-79
2021/10/24 00:53:10;;;;;;;;;31.00;27.75;;;;;11.22;58.94;102115.13;5057439;28;45328;-79
2021/10/24 00:55:36;;;;;;;;;28.25;26.25;;;;;11.23;58.65;102117.78;5058716;28;45917;-80
2021/10/24 00:58:05;;;;;;;;;32.50;29.25;;;;;11.22;59.04;102113.44;5058436;28;45327;-79
2021/10/24 01:00:30;;;;;;;;;30.00;28.50;;;;;11.23;58.84;102106.53;5058586;28;45445;-78
2021/10/24 01:02:56;;;;;;;;;33.00;28.75;;;;;11.28;58.87;102116.41;5057347;28;46359;-78
2021/10/24 01:05:22;;;;;;;;;30.50;29.00;;;;;11.29;58.67;102110.41;5057718;28;45261;-77
2021/10/24 01:07:48;;;;;;;;;27.00;27.00;;;;;11.26;58.97;102107.63;5039277;28;45316;-78
2021/10/24 01:10:16;;;;;;;;;28.50;28.50;;;;;11.28;58.68;102116.41;5058279;28;45517;-78
2021/10/24 01:12:47;;;;;;;;;33.00;27.00;;;;;11.25;58.74;102112.72;5057677;28;45877;-77
2021/10/24 01:15:13;;;;;;;;;31.25;31.00;;;;;11.20;58.66;102104.66;5058126;28;45371;-77
2021/10/24 01:17:39;;;;;;;;;44.75;37.50;;;;;11.29;58.99;102119.88;5057730;28;45362;-78
2021/10/24 01:20:07;;;;;;;;;32.25;30.25;;;;;11.30;58.95;102121.69;5058024;28;45459;-78
2021/10/24 01:22:38;;;;;;;;;28.75;27.75;;;;;11.25;58.90;102112.72;5057915;28;45327;-78
2021/10/24 01:25:06;;;;;;;;;31.25;29.50;;;;;11.22;59.34;102110.84;5058061;28;45216;-78
2021/10/24 01:27:34;;;;;;;;;33.50;29.25;;;;;11.22;59.01;102117.72;5058098;28;45936;-77
2021/10/24 01:30:01;;;;;;;;;31.50;29.75;;;;;11.18;59.25;102098.47;5057743;28;45497;-78
2021/10/24 01:32:27;;;;;;;;;31.25;29.00;;;;;11.15;59.14;102094.00;5057818;28;45380;-78
2021/10/24 01:34:52;;;;;;;;;29.00;27.00;;;;;11.17;59.18;102096.69;5057275;28;45322;-79
2021/10/24 01:37:18;;;;;;;;;29.75;28.00;;;;;11.17;59.14;102099.28;5057894;28;45241;-79
2021/10/24 01:39:44;;;;;;;;;27.75;26.50;;;;;11.15;59.04;102087.91;5058109;28;45305;-79
2021/10/24 01:42:10;;;;;;;;;31.25;26.50;;;;;11.15;59.00;102088.81;5057736;28;45455;-80
2021/10/24 01:44:37;;;;;;;;;30.75;25.75;;;;;11.14;59.42;102080.94;5057761;28;45487;-78
2021/10/24 01:47:03;;;;;;;;;25.25;22.75;;;;;11.10;59.03;102072.06;5058176;28;45402;-81
2021/10/24 01:49:28;;;;;;;;;27.75;26.25;;;;;11.15;58.93;102077.53;5057411;28;45658;-79
2021/10/24 01:51:54;;;;;;;;;29.00;28.50;;;;;11.10;59.02;102079.84;5056992;28;45363;-79
2021/10/24 01:54:19;;;;;;;;;25.75;25.00;;;;;11.07;59.19;102073.56;5057364;28;45406;-78
2021/10/24 01:56:45;;;;;;;;;25.75;23.50;;;;;11.04;59.17;102069.09;5057392;28;45340;-79
2021/10/24 01:59:11;;;;;;;;;25.75;24.25;;;;;11.05;59.40;102063.13;5057807;28;45277;-79
2021/10/24 02:01:36;;;;;;;;;28.00;25.75;;;;;10.93;59.40;102039.03;5057730;28;45471;-79
2021/10/24 02:04:02;;;;;;;;;30.00;28.00;;;;;11.04;59.21;102056.16;5057254;28;45327;-81
2021/10/24 02:06:28;;;;;;;;;28.75;27.25;;;;;10.98;59.47;102050.56;5056594;28;45246;-80
2021/10/24 02:08:53;;;;;;;;;22.25;20.00;;;;;11.00;59.34;102061.94;5057176;28;45240;-79
2021/10/24 02:11:21;;;;;;;;;30.50;28.25;;;;;10.84;59.52;102021.19;5039000;28;46037;-80
2021/10/24 02:13:46;;;;;;;;;27.25;23.50;;;;;10.93;59.44;102039.91;5056896;28;46470;-80
2021/10/24 02:16:12;;;;;;;;;27.25;24.75;;;;;10.90;59.17;102036.22;5055735;28;45414;-80
2021/10/24 02:18:38;;;;;;;;;25.75;22.25;;;;;10.91;59.61;102030.25;5056759;28;45525;-79
2021/10/24 02:21:03;;;;;;;;;23.75;21.00;;;;;10.93;59.61;102031.25;5057060;28;45560;-79
2021/10/24 02:23:29;;;;;;;;;28.50;26.00;;;;;10.78;59.48;102006.16;5056829;28;45486;-79
2021/10/24 02:25:54;;;;;;;;;21.25;21.25;;;;;10.82;59.50;102002.06;5038662;28;45469;-79
2021/10/24 02:28:20;;;;;;;;;25.00;23.25;;;;;10.89;59.62;102008.53;5057204;28;45360;-79
2021/10/24 02:30:45;;;;;;;;;26.75;24.25;;;;;10.91;59.45;102006.94;5056660;28;45308;-79
2021/10/24 02:33:11;;;;;;;;;25.00;20.50;;;;;10.87;59.04;101992.91;5056726;28;45236;-80
2021/10/24 02:35:37;;;;;;;;;29.50;23.00;;;;;10.94;59.15;102000.25;5056480;28;45271;-78
2021/10/24 02:38:04;;;;;;;;;24.00;22.25;;;;;10.93;59.15;101995.84;5039149;28;45270;-79
2021/10/24 02:40:29;;;;;;;;;26.50;24.25;;;;;10.95;59.37;101998.56;5055741;28;45531;-80
2021/10/24 02:42:55;;;;;;;;;22.25;20.25;;;;;10.88;59.19;101984.34;5056406;28;45319;-79
2021/10/24 02:45:21;;;;;;;;;28.25;23.75;;;;;10.96;59.26;102001.25;5056929;28;45354;-79
2021/10/24 02:47:47;;;;;;;;;21.50;21.50;;;;;10.94;59.21;101999.38;5056718;28;45687;-80
2021/10/24 02:50:13;;;;;;;;;23.50;22.50;;;;;10.86;59.15;101982.41;5056230;28;45368;-79
2021/10/24 02:52:39;;;;;;;;;22.25;22.00;;;;;10.80;59.22;101982.94;5055623;28;45417;-79
2021/10/24 02:55:05;;;;;;;;;22.00;19.00;;;;;10.94;59.10;101995.06;5056749;28;45375;-80
2021/10/24 02:57:31;;;;;;;;;24.50;19.00;;;;;10.93;58.94;101984.63;5056657;28;45352;-78
2021/10/24 02:59:57;;;;;;;;;25.50;19.75;;;;;10.95;58.92;101989.09;5055980;28;45496;-80
2021/10/24 03:02:22;;;;;;;;;23.75;19.75;;;;;10.92;59.21;101982.81;5056235;28;45375;-80
2021/10/24 03:04:48;;;;;;;;;27.50;23.75;;;;;10.87;59.38;101979.03;5055643;28;45269;-81
2021/10/24 03:07:14;;;;;;;;;23.00;21.50;;;;;10.89;59.40;101983.53;5056528;28;45601;-80
2021/10/24 03:09:39;;;;;;;;;20.25;18.75;;;;;10.90;59.61;101981.81;5054493;28;46303;-80
2021/10/24 03:12:05;;;;;;;;;23.25;22.00;;;;;10.94;59.50;101987.28;5056303;28;45466;-81
2021/10/24 03:14:31;;;;;;;;;24.25;21.25;;;;;10.94;59.41;101981.22;5056222;28;45304;-80
2021/10/24 03:16:56;;;;;;;;;20.25;20.25;;;;;10.94;59.58;101991.59;5056314;28;45897;-80
2021/10/24 03:19:23;;;;;;;;;24.25;21.75;;;;;10.87;59.42;101979.03;5037492;28;45574;-80
2021/10/24 03:21:49;;;;;;;;;26.75;23.75;;;;;10.87;59.57;101976.44;5055695;28;45418;-80
2021/10/24 03:24:17;;;;;;;;;27.00;23.00;;;;;10.87;59.50;101973.84;5037978;28;45383;-81
2021/10/24 03:26:43;;;;;;;;;25.25;23.50;;;;;10.84;59.36;101975.47;5037851;28;45458;-79
2021/10/24 03:29:09;;;;;;;;;24.25;22.50;;;;;10.74;59.43;101967.00;5055670;28;45235;-79
2021/10/24 03:31:35;;;;;;;;;26.75;25.50;;;;;10.64;59.49;101962.94;5056205;28;45367;-80
2021/10/24 03:34:00;;;;;;;;;27.50;22.50;;;;;10.67;59.26;101971.81;5055352;28;45450;-80
2021/10/24 03:36:26;;;;;;;;;25.50;22.50;;;;;10.65;59.23;101988.94;5056127;28;45698;-80
2021/10/24 03:38:52;;;;;;;;;23.25;20.50;;;;;10.51;59.71;101974.22;5055423;28;46219;-80
2021/10/24 03:41:17;;;;;;;;;23.50;23.50;;;;;10.55;59.45;101990.84;5055676;28;45398;-79
2021/10/24 03:43:43;;;;;;;;;22.00;19.75;;;;;10.42;59.60;101974.53;5055695;28;45379;-79
2021/10/24 03:46:09;;;;;;;;;24.25;20.25;;;;;10.33;59.61;101973.91;5056310;28;45557;-78
2021/10/24 03:48:35;;;;;;;;;20.25;19.50;;;;;10.40;59.78;101993.34;5055816;28;45419;-78
2021/10/24 03:51:01;;;;;;;;;23.25;20.75;;;;;10.38;59.66;101998.44;5055900;28;45404;-78
2021/10/24 03:53:26;;;;;;;;;17.00;17.00;;;;;10.25;59.99;101980.28;5055846;28;45396;-78
2021/10/24 03:55:52;;;;;;;;;21.50;20.25;;;;;10.28;59.76;101991.72;5055466;28;45260;-78
2021/10/24 03:58:17;;;;;;;;;24.75;22.75;;;;;10.27;60.21;101995.09;5055403;28;46014;-79
2021/10/24 04:00:44;;;;;;;;;24.00;21.00;;;;;10.34;59.96;102009.34;5053919;28;45310;-79
2021/10/24 04:03:10;;;;;;;;;40.75;35.25;;;;;10.26;60.25;101998.47;5055079;28;45471;-78
2021/10/24 04:05:37;;;;;;;;;29.75;22.75;;;;;10.22;60.93;101997.41;5056094;28;45477;-80
2021/10/24 04:08:03;;;;;;;;;24.50;23.00;;;;;10.31;60.50;102002.28;5054391;28;45839;-79
2021/10/24 04:10:29;;;;;;;;;28.00;24.75;;;;;10.31;60.60;101999.69;5055105;28;45482;-79
2021/10/24 04:12:55;;;;;;;;;24.25;23.00;;;;;10.33;60.67;101997.19;5054928;28;45347;-80
2021/10/24 04:15:22;;;;;;;;;35.00;26.25;;;;;10.45;60.42;102015.28;5055605;28;45630;-79
2021/10/24 04:17:48;;;;;;;;;26.25;25.75;;;;;10.44;60.07;102011.75;5053936;28;46091;-79
2021/10/24 04:20:17;;;;;;;;;24.00;23.25;;;;;10.50;60.20;102012.19;5055266;28;45227;-80
2021/10/24 04:22:43;;;;;;;;;25.25;22.50;;;;;10.47;59.92;102018.84;5054778;28;45465;-81
2021/10/24 04:25:10;;;;;;;;;28.75;26.50;;;;;10.37;60.33;102007.88;5055448;28;45518;-79
2021/10/24 04:27:37;;;;;;;;;26.75;22.75;;;;;10.30;60.51;101990.13;5055125;28;45597;-79
2021/10/24 04:30:05;;;;;;;;;24.00;20.75;;;;;10.36;60.60;102013.84;5058715;28;45845;-79
2021/10/24 04:32:32;;;;;;;;;29.25;24.50;;;;;10.38;59.88;102008.78;5058087;28;45306;-79
2021/10/24 04:34:58;;;;;;;;;23.25;22.50;;;;;10.28;60.30;101996.91;5058744;28;45346;-80
2021/10/24 04:37:23;;;;;;;;;23.50;22.75;;;;;10.35;60.90;102003.38;5058050;28;45801;-79
2021/10/24 04:39:49;;;;;;;;;23.00;20.25;;;;;10.33;60.60;101986.84;5058534;28;45436;-79
2021/10/24 04:42:15;;;;;;;;;26.75;24.75;;;;;10.41;60.42;101990.88;5059063;28;45403;-79
2021/10/24 04:44:40;;;;;;;;;29.00;25.00;;;;;10.43;60.53;101991.84;5057936;28;45533;-79
2021/10/24 04:47:06;;;;;;;;;23.50;20.25;;;;;10.50;60.64;101990.56;5058040;28;45778;-79
2021/10/24 04:49:31;;;;;;;;;27.50;24.50;;;;;10.43;60.41;101985.78;5056944;28;45332;-79
2021/10/24 04:51:57;;;;;;;;;24.75;23.25;;;;;10.52;60.22;102002.81;5040167;28;45343;-78
2021/10/24 04:54:24;;;;;;;;;28.00;23.50;;;;;10.40;60.43;101978.72;5058324;28;45287;-79
2021/10/24 04:56:50;;;;;;;;;25.75;20.50;;;;;10.55;60.20;101993.44;5057598;28;45917;-78
2021/10/24 04:59:16;;;;;;;;;22.50;18.25;;;;;10.45;60.12;101982.50;5057797;28;45935;-79
2021/10/24 05:01:43;;;;;;;;;24.25;21.50;;;;;10.56;59.91;101996.16;5057148;28;45609;-78
2021/10/24 05:04:10;;;;;;;;;25.75;23.25;;;;;10.50;59.70;101995.72;5057880;28;45396;-78
2021/10/24 05:06:35;;;;;;;;;30.00;27.00;;;;;10.42;60.19;101979.69;5057802;28;46483;-78
2021/10/24 05:09:02;;;;;;;;;31.75;28.25;;;;;10.51;60.23;101989.75;5057570;28;45701;-80
2021/10/24 05:11:27;;;;;;;;;33.50;29.75;;;;;10.48;60.08;101994.72;5056909;28;45345;-79
2021/10/24 05:13:53;;;;;;;;;22.25;20.25;;;;;10.43;59.74;101991.84;5058073;28;45186;-80
2021/10/24 05:16:18;;;;;;;;;26.75;25.75;;;;;10.42;60.13;101992.66;5057717;28;45347;-80
2021/10/24 05:18:44;;;;;;;;;31.25;27.00;;;;;10.32;60.41;101978.19;5057393;28;45234;-80
2021/10/24 05:21:10;;;;;;;;;31.50;25.50;;;;;10.41;60.15;101992.56;5057148;28;45629;-79
2021/10/24 05:23:36;;;;;;;;;25.50;22.00;;;;;10.35;60.06;101985.25;5058096;28;45236;-80
2021/10/24 05:26:04;;;;;;;;;30.00;27.00;;;;;10.31;60.52;101985.88;5057252;28;46145;-79
2021/10/24 05:28:30;;;;;;;;;31.50;29.00;;;;;10.25;61.36;101970.84;5057456;28;45332;-79
2021/10/24 05:30:56;;;;;;;;;22.50;20.50;;;;;10.29;60.77;101972.81;5057697;28;45338;-80
2021/10/24 05:33:22;;;;;;;;;31.25;26.25;;;;;10.20;60.44;101962.75;5056777;28;45296;-80
2021/10/24 05:35:49;;;;;;;;;26.25;25.75;;;;;10.27;61.08;101970.94;5038855;28;46467;-79
2021/10/24 05:38:15;;;;;;;;;30.25;26.75;;;;;10.27;60.88;101970.94;5057486;28;45284;-79
2021/10/24 05:40:41;;;;;;;;;27.25;26.25;;;;;10.26;60.75;101972.59;5056283;28;45265;-80
2021/10/24 05:43:08;;;;;;;;;37.50;32.25;;;;;10.28;60.72;101970.13;5057495;28;45472;-81
2021/10/24 05:45:34;;;;;;;;;39.00;33.50;;;;;10.28;61.07;101965.84;5056145;28;46178;-80
2021/10/24 05:47:59;;;;;;;;;38.50;33.25;;;;;10.28;61.04;101959.78;5057124;28;45344;-78
2021/10/24 05:50:25;;;;;;;;;34.25;28.75;;;;;10.27;61.01;101957.97;5056306;28;46840;-78
2021/10/24 05:52:50;;;;;;;;;27.25;26.25;;;;;10.25;60.54;101955.31;5057284;28;45343;-77
2021/10/24 05:55:17;;;;;;;;;30.00;25.25;;;;;10.20;60.51;101954.97;5056961;28;46563;-78
2021/10/24 05:57:42;;;;;;;;;24.00;21.75;;;;;10.18;60.57;101961.78;5056680;28;45303;-78
2021/10/24 06:00:09;;;;;;;;;30.00;26.00;;;;;10.17;60.90;101964.25;5039307;28;45290;-78
2021/10/24 06:02:34;;;;;;;;;31.50;25.75;;;;;10.19;61.10;101962.66;5055588;28;45497;-77
2021/10/24 06:05:00;;;;;;;;;31.00;29.00;;;;;10.09;61.25;101945.66;5056475;28;45909;-78
2021/10/24 06:07:26;;;;;;;;;28.75;26.00;;;;;10.22;61.32;101968.03;5056505;28;45316;-78
2021/10/24 06:09:55;;;;;;;;;18.75;17.75;;;;;10.18;60.47;101966.94;5056970;28;45407;-79
2021/10/24 06:15:00;;;;;;;;;26.25;25.25;;;;;10.05;60.81;101957.47;5057041;28;45309;-78
2021/10/24 06:17:27;;;;;;;;;23.75;22.75;;;;;9.94;60.85;101949.81;5056885;28;46165;-78
2021/10/24 06:19:52;;;;;;;;;21.50;17.75;;;;;9.93;60.68;101948.94;5056629;28;45722;-78
2021/10/24 06:22:18;;;;;;;;;24.00;21.25;;;;;9.96;60.97;101966.34;5037706;28;45754;-79
2021/10/24 06:24:44;;;;;;;;;22.50;20.50;;;;;9.93;60.78;101959.28;5038543;28;47892;-78
2021/10/24 06:27:09;;;;;;;;;31.25;26.75;;;;;9.83;60.78;101938.75;5056534;28;45338;-79
2021/10/24 06:29:35;;;;;;;;;23.50;23.00;;;;;9.74;60.70;101931.28;5057388;28;45347;-79
2021/10/24 06:32:00;;;;;;;;;26.00;22.75;;;;;9.73;61.03;101939.84;5056556;28;45509;-79
2021/10/24 06:34:26;;;;;;;;;23.75;20.50;;;;;9.78;60.81;101947.91;5056221;28;45940;-77
2021/10/24 06:36:52;;;;;;;;;22.25;22.25;;;;;9.75;61.30;101944.31;5039477;28;45367;-79
2021/10/24 06:39:17;;;;;;;;;20.50;20.25;;;;;9.74;61.04;101941.63;5056144;28;45451;-79
2021/10/24 06:41:43;;;;;;;;;30.50;26.00;;;;;9.73;61.36;101942.44;5056504;28;45366;-79
2021/10/24 06:44:09;;;;;;;;;25.25;20.75;;;;;9.68;61.17;101939.53;5056844;28;45368;-80
2021/10/24 06:46:34;;;;;;;;;23.00;21.50;;;;;9.73;61.20;101951.06;5055866;28;45394;-80
2021/10/24 06:49:00;;;;;;;;;21.00;19.25;;;;;9.63;61.32;101933.16;5055956;28;45549;-81
2021/10/24 06:51:26;;;;;;;;;21.00;19.75;;;;;9.73;61.34;101951.06;5055923;28;45513;-80
2021/10/24 06:53:51;;;;;;;;;26.75;23.75;;;;;9.74;61.43;101945.09;5056107;28;45847;-79
2021/10/24 06:56:17;;;;;;;;;25.25;21.50;;;;;9.73;61.46;101942.44;5055492;28;45495;-78
2021/10/24 06:58:43;;;;;;;;;27.75;22.50;;;;;9.72;61.09;101938.06;5055283;28;45411;-78
2021/10/24 07:01:09;;;;;;;;;24.00;20.75;;;;;9.62;61.51;101913.25;5056577;28;45392;-82
2021/10/24 07:03:34;;;;;;;;;40.75;36.25;;;;;9.73;61.50;101930.38;5037771;28;46988;-82
2021/10/24 07:06:00;;;;;;;;;34.25;31.50;;;;;9.75;62.14;101926.22;5055653;28;45429;-80
2021/10/24 07:08:26;;;;;;;;;27.00;27.00;;;;;9.83;61.30;101934.47;5037990;28;45325;-82
2021/10/24 07:10:52;;;;;;;;;19.75;18.25;;;;;9.85;61.25;101927.72;5055927;28;45653;-81
2021/10/24 07:13:18;;;;;;;;;25.25;20.25;;;;;9.83;60.76;101933.56;5042949;28;46713;-86
2021/10/24 07:15:44;;;;;;;;;28.75;26.00;;;;;9.83;61.40;101934.47;5055758;28;45235;-80
2021/10/24 07:18:10;;;;;;;;;31.25;28.50;;;;;9.90;61.50;101941.84;5056777;28;45324;-79
2021/10/24 07:20:36;;;;;;;;;32.50;31.75;;;;;9.85;61.88;101925.16;5056112;28;45632;-81
2021/10/24 07:23:02;;;;;;;;;22.00;20.25;;;;;9.94;61.37;101935.19;5037394;28;45438;-82
2021/10/24 07:25:28;;;;;;;;;21.25;20.75;;;;;9.93;61.21;101936.00;5038281;28;45346;-83
2021/10/24 07:27:54;;;;;;;;;26.50;24.50;;;;;9.84;60.77;101923.34;5057201;28;45584;-83
2021/10/24 07:30:21;;;;;;;;;21.50;19.25;;;;;9.83;61.21;101913.78;5071685;28;44892;-88
2021/10/24 07:32:47;;;;;;;;;15.50;15.50;;;;;9.85;61.09;101914.78;5058737;28;45403;-81
2021/10/24 07:35:13;;;;;;;;;19.00;19.00;;;;;10.01;61.06;101931.31;5059042;28;45767;-75
2021/10/24 07:37:39;;;;;;;;;18.75;16.25;;;;;9.93;60.74;101904.97;5058401;28;45259;-84
2021/10/24 07:40:10;;;;;;;;;18.00;17.50;;;;;10.12;61.08;101932.91;5051616;28;45287;-83
2021/10/24 07:42:36;;;;;;;;;18.25;17.75;;;;;10.21;60.46;101932.59;5054536;28;46655;-76
2021/10/24 07:45:03;;;;;;;;;15.50;13.25;;;;;10.15;60.38;101901.16;5055591;28;45447;-78
2021/10/24 07:47:30;;;;;;;;;17.25;15.00;;;;;10.33;60.23;101925.63;5054617;28;45186;-75
2021/10/24 07:50:04;;;;;;;;;17.75;17.50;;;;;10.36;60.04;101910.31;5052599;28;45422;-76
2021/10/24 07:52:30;;;;;;;;;17.50;17.50;;;;;10.35;59.90;101898.16;5035882;28;47778;-75
2021/10/24 07:54:56;;;;;;;;;17.00;13.75;;;;;10.37;60.11;101891.38;5037063;28;45849;-79
2021/10/24 07:57:23;;;;;;;;;24.50;20.75;;;;;10.51;59.51;101909.50;5055098;28;45300;-82
2021/10/24 07:59:49;;;;;;;;;20.75;20.00;;;;;10.53;59.71;101913.06;5055504;28;45430;-80
2021/10/24 08:02:18;;;;;;;;;21.25;20.50;;;;;10.55;59.25;101924.44;5055065;28;46225;-79
2021/10/24 08:04:48;;;;;;;;;15.75;14.75;;;;;10.52;59.31;101913.88;5057636;28;45836;-81
2021/10/24 08:07:15;;;;;;;;;18.25;15.00;;;;;10.44;59.20;101904.72;5059176;28;45562;-82
2021/10/24 08:09:41;;;;;;;;;26.75;22.50;;;;;10.52;59.81;101913.88;5041778;28;45676;-82
2021/10/24 08:12:08;;;;;;;;;15.75;14.00;;;;;10.42;59.48;101896.84;5060753;28;46219;-82
2021/10/24 08:14:34;;;;;;;;;22.25;18.50;;;;;10.54;59.74;101922.63;5058419;28;45306;-82
2021/10/24 08:17:00;;;;;;;;;19.75;16.00;;;;;10.57;59.59;101914.16;5059621;28;45313;-81
2021/10/24 08:19:26;;;;;;;;;21.25;19.50;;;;;10.44;58.96;101884.03;5058514;28;45193;-81
2021/10/24 08:21:52;;;;;;;;;18.00;17.75;;;;;10.56;58.78;101917.53;5058124;28;46107;-79
2021/10/24 08:24:19;;;;;;;;;19.25;18.25;;;;;10.47;59.19;101899.75;5057893;28;45344;-78
2021/10/24 08:26:45;;;;;;;;;20.75;19.50;;;;;10.51;59.04;101910.41;5058409;28;45253;-79
2021/10/24 08:29:11;;;;;;;;;17.75;17.75;;;;;10.52;59.11;101908.69;5058141;28;45609;-77
2021/10/24 08:31:37;;;;;;;;;16.75;15.75;;;;;10.52;59.09;101909.59;5057914;28;45504;-77
2021/10/24 08:34:04;;;;;;;;;20.50;18.00;;;;;10.53;58.79;101902.72;5058297;28;45846;-78
2021/10/24 08:36:30;;;;;;;;;17.00;16.50;;;;;10.60;58.89;101914.34;5057361;28;45335;-78
2021/10/24 08:38:57;;;;;;;;;21.50;18.25;;;;;10.62;58.96;101907.59;5058966;28;45236;-78
2021/10/24 08:41:28;;;;;;;;;18.75;17.50;;;;;10.68;58.79;101923.50;5039221;28;47866;-78
2021/10/24 08:44:02;;;;;;;;;14.50;13.50;;;;;10.65;58.52;101921.63;5057293;28;45892;-78
2021/10/24 08:46:29;;;;;;;;;19.00;17.00;;;;;10.53;58.85;101890.66;5057636;28;45234;-81
2021/10/24 08:48:56;;;;;;;;;17.25;14.00;;;;;10.58;58.48;101896.16;5059461;28;45522;-90
2021/10/24 08:51:25;;;;;;;;;17.00;16.50;;;;;10.71;58.55;101909.81;5039203;28;46750;-78
2021/10/24 08:53:51;;;;;;;;;17.50;14.75;;;;;10.66;58.11;101904.38;5056927;28;45460;-83
2021/10/24 08:56:23;;;;;;;;;18.50;14.75;;;;;10.62;58.42;101897.22;5057249;28;45757;-82
2021/10/24 08:58:49;;;;;;;;;16.75;13.00;;;;;10.66;58.53;101897.50;5057260;28;45374;-77
2021/10/24 09:01:16;;;;;;;;;15.00;13.75;;;;;10.69;58.40;101897.69;5056743;28;45691;-81
2021/10/24 09:04:07;;;;;;;;;16.50;14.50;;;;;10.71;58.48;101889.09;5037607;28;46115;-79
2021/10/24 09:06:48;;;;;;;;;16.50;13.50;;;;;10.71;58.30;101882.25;5056373;28;45492;-84
2021/10/24 09:09:16;;;;;;;;;20.25;15.25;;;;;10.69;58.63;101870.91;5040730;28;45473;-85
2021/10/24 09:11:48;;;;;;;;;18.50;18.50;;;;;10.75;58.25;101880.75;5058165;28;46175;-84
2021/10/24 09:14:36;;;;;;;;;16.25;15.50;;;;;10.73;58.33;101875.47;5057916;28;45271;-78
2021/10/24 09:17:03;;;;;;;;;18.25;15.25;;;;;10.80;58.20;101879.31;5056318;28;46618;-76
2021/10/24 09:19:40;;;;;;;;;17.00;15.50;;;;;10.76;58.08;101867.00;5056560;28;45501;-83
2021/10/24 09:22:22;;;;;;;;;16.75;15.50;;;;;10.86;57.94;101877.09;5056914;28;45513;-83
2021/10/24 09:25:07;;;;;;;;;14.50;12.25;;;;;10.75;57.71;101860.91;5056394;28;45934;-84
2021/10/24 09:27:53;;;;;;;;;14.75;14.50;;;;;10.80;57.75;101876.72;5051351;28;45465;-87
2021/10/24 09:30:39;;;;;;;;;14.50;11.75;;;;;10.69;57.73;101857.94;5057762;28;45473;-80
2021/10/24 09:33:10;;;;;;;;;15.00;14.00;;;;;10.75;57.59;101871.25;5056700;28;46224;-79
2021/10/24 09:35:44;;;;;;;;;14.75;13.75;;;;;10.76;57.62;101865.28;5066307;27;45945;-83
2021/10/24 09:38:16;;;;;;;;;15.00;13.00;;;;;10.75;57.43;101871.25;5078199;28;45408;-83
2021/10/24 09:40:46;;;;;;;;;13.00;12.25;;;;;10.76;57.37;101878.22;5061515;28;45620;-84
2021/10/24 09:43:21;;;;;;;;;15.00;13.00;;;;;10.76;57.60;101878.22;5058486;28;45686;-82
2021/10/24 09:46:08;;;;;;;;;15.75;13.75;;;;;10.73;57.86;101867.72;5043049;28;46088;-83
2021/10/24 09:48:36;;;;;;;;;4.00;1.25;;;;;10.85;57.95;101885.69;5055707;28;45551;-81
2021/10/24 09:51:07;;;;;;;;;13.25;12.00;;;;;10.88;57.78;101875.50;5056556;28;45592;-80
2021/10/24 09:53:38;;;;;;;;;14.00;14.00;;;;;10.92;57.38;101869.69;5040255;28;47783;-79
2021/10/24 09:56:05;;;;;;;;;15.00;14.00;;;;;10.94;57.57;101881.06;5056831;28;45214;-79
2021/10/24 09:58:36;;;;;;;;;14.25;12.25;;;;;10.90;57.44;101871.31;5056317;28;45407;-79
2021/10/24 10:01:04;;;;;;;;;15.00;14.00;;;;;10.90;57.75;101870.41;5057078;28;45261;-80
2021/10/24 10:03:31;;;;;;;;;14.75;14.00;;;;;10.94;57.81;101870.69;5055772;28;45477;-82
2021/10/24 10:05:57;;;;;;;;;17.50;14.00;;;;;10.99;57.89;101870.97;5055797;28;45822;-78
2021/10/24 10:08:23;;;;;;;;;19.50;16.75;;;;;10.92;57.57;101848.97;5056552;28;45438;-83
2021/10/24 10:10:58;;;;;;;;;13.25;13.00;;;;;11.01;57.44;101864.19;5060771;28;45533;-80
2021/10/24 10:13:27;;;;;;;;;16.75;16.75;;;;;11.10;57.60;101867.31;5057132;28;45570;-80
2021/10/24 10:15:53;;;;;;;;;16.25;15.50;;;;;11.15;57.52;101872.78;5056026;28;45908;-79
2021/10/24 10:18:19;;;;;;;;;23.00;18.50;;;;;11.19;57.57;101876.44;5055907;28;45230;-77
2021/10/24 10:20:51;;;;;;;;;20.00;20.00;;;;;11.22;57.39;101879.22;5057505;28;45354;-83
2021/10/24 10:23:37;;;;;;;;;19.75;19.25;;;;;11.13;57.54;101859.72;5061787;28;46088;-84
2021/10/24 10:26:42;;;;;;;;;25.75;19.25;;;;;11.28;57.46;101877.00;5060261;28;45294;-83
2021/10/24 10:29:13;;;;;;;;;22.50;22.00;;;;;11.37;57.65;101887.00;5062373;28;45589;-80
2021/10/24 10:31:40;;;;;;;;;22.25;18.00;;;;;11.40;57.46;101879.41;5058808;28;45269;-82
2021/10/24 10:34:09;;;;;;;;;15.50;15.50;;;;;11.40;57.35;101875.09;5056933;28;46188;-85
2021/10/24 10:36:44;;;;;;;;;14.25;12.50;;;;;11.48;57.40;101893.72;5038589;28;45284;-84
2021/10/24 10:39:31;;;;;;;;;19.25;16.75;;;;;11.50;57.45;101880.88;5056767;28;45196;-83
2021/10/24 10:42:26;;;;;;;;;20.25;17.50;;;;;11.50;57.38;101878.28;5057073;28;45445;-83
2021/10/24 10:45:19;;;;;;;;;18.50;16.25;;;;;11.58;57.47;101884.78;5020110;28;45425;-83
2021/10/24 10:47:57;;;;;;;;;20.25;17.00;;;;;11.62;57.33;101878.94;5052108;28;45856;-79
2021/10/24 10:50:28;;;;;;;;;17.75;16.00;;;;;11.68;57.22;101881.00;5055570;28;45421;-77
2021/10/24 10:52:58;;;;;;;;;22.25;18.25;;;;;11.65;57.31;101865.28;5069636;28;45534;-78
2021/10/24 10:55:26;;;;;;;;;43.00;34.00;;;;;11.76;57.45;101877.16;5065015;28;46609;-77
2021/10/24 10:57:52;;;;;;;;;39.25;30.25;;;;;11.74;57.81;101865.81;5057979;28;45433;-81
2021/10/24 11:00:37;;;;;;;;;22.00;20.75;;;;;11.87;57.55;101873.50;5055819;28;45404;-76
2021/10/24 11:03:04;;;;;;;;;17.00;15.50;;;;;11.92;57.18;101873.75;5054133;28;45691;-77
2021/10/24 11:05:36;;;;;;;;;18.50;18.00;;;;;11.93;56.89;101868.63;5053827;28;45474;-79
2021/10/24 11:08:02;;;;;;;;;16.75;14.00;;;;;12.05;56.99;101883.13;5054749;28;45921;-78
2021/10/24 11:10:47;;;;;;;;;20.50;17.00;;;;;12.08;56.76;101883.31;5055084;28;45181;-79
2021/10/24 11:13:28;;;;;;;;;17.00;15.25;;;;;12.14;56.55;101888.84;5055450;28;45465;-79
2021/10/24 11:15:53;;;;;;;;;16.00;14.00;;;;;12.12;56.46;101874.00;5055054;28;46212;-81